Du har inga inställningar för hoppväder.nu

Hoppväder.nu

Senast uppdaterat 09:42

UTC-tid

2020-08-06 kl. 07:42


Sol och måne

Solen går upp 4:59 och går ner 21:57 (beräknade cirkatider)
Nästa fullmåne blir om 27 dagar (2020-09-02)

METAR

ESKN (Skavsta)
(22 minuter sedan)
ESKN 060720Z 26008KT 9999 BKN016 19/16 Q1020=



ESSB (Bromma)
(22 minuter sedan)
ESSB 060720Z 24005KT 9999 BKN015 19/16 Q1019=



ESOE (Örebro)
(22 minuter sedan)
ESOE 060720Z AUTO 23007KT 190V280 9999 OVC011/// 18/16 Q1019=



ESSL (Linköping)
(22 minuter sedan)
ESSL 060720Z 23005KT 190V270 9999 BKN015 19/16 Q1020=



ESSP (Norrköping)
(22 minuter sedan)
ESSP 060720Z 24009KT 9999 BKN018 20/16 Q1020=



TAF

ESKN (Skavsta)
(132 minuter sedan)
ESKN 060530Z 0606/0706 26007KT 9999 BKN030=



ESSB (Bromma)
(132 minuter sedan)
ESSB 060530Z 0606/0615 26006KT 9999 BKN030 TEMPO 0606/0609 BKN012=



ESOE (Örebro)
(132 minuter sedan)
ESOE 060530Z 0606/0608 22010KT 9999 BKN006 BECMG 0606/0608 BKN012=



ESSL (Linköping)
(80 minuter sedan)
ESSL AMD 060622Z 0606/0615 26006KT 9999 BKN014 BECMG 0606/0608 FEW030 SCT060=



ESSP (Norrköping)
(132 minuter sedan)
ESSP 060530Z 0606/0614 25008KT 9999 SCT030=





Kodnycklar till TAF och METAR






LHP

(Nyköping är område se32b i Delområde 4)

Översikt

ÖVERSIKT FÖR OMRÅDE se3 UTFÄRDAD 060724

GÄLLANDE DEN 6 AUGUSTI 2020 MELLAN 08 OCH 16 UTC


Väderöversikt

En högtrycksrygg förstärks över södra Sverige.

Sikt under 5 kilometer eller molnbas under 1000 fot
08-10UTC: Hela området utom se33
10-12UTC: Område se31


Måttlig eller svår isbildning
Väntas inte förekomma under perioden

Måttlig eller svår turbulens
Väntas inte förekomma under perioden

Delområde 4

PROGNOS FÖR OMRÅDE se32 UTFÄRDAD 060724
GÄLLANDE DEN 6 AUGUSTI 2020 MELLAN 08 OCH 16 UTC

Måttlig eller svår turbulens
08-16UTC: I hela området: Väntas inte förekomma under perioden

Måttlig eller svår isbildning
08-16UTC: I hela området: Väntas inte förekomma under perioden

Sikt/Väder/Moln
08-10UTC: Område se32b,se32a,se32h,se32g,se32i: Sikt 3km - >8km i duggregn, regn. Molnbas 1000ft - >2000ft.
Område se32d,se32f,se32e: Sikt 1.5km - >8km i dis, duggregn, regn. Molnbas 500ft - >2000ft.

08-16UTC: Område se32c,se32j: Sikt >8km. Molnbas >2000ft.

10-12UTC: Område se32d: Sikt 5km - >8km i duggregn, regn. Molnbas 1500ft - >2000ft.

10-16UTC: Område se32b,se32a,se32h,se32g,se32f,se32e,se32i: Sikt >8km. Molnbas >2000ft.

12-16UTC: Område se32d: Sikt >8km. Molnbas >2000ft.


Molnöversida
08-10UTC: Område se32c,se32b,se32a,se32j,se32i: Molnöversida FL100.

08-12UTC: Område se32d,se32h,se32g,se32f,se32e: Molnöversida > FL125.

10-12UTC: Område se32c,se32b,se32a,se32j,se32i: Molnöversida FL080.

12-16UTC: Område se32b,se32a,se32h,se32g,se32f,se32e: Molnöversida FL060.
Område se32c,se32j,se32i: Ingen prognos
Område se32d: Molnöversida FL100.


CB/TCU Moln
08-16UTC: I hela området: Väntas inte förekomma under perioden

Nollgradersisoterm
08-10UTC: Noll grader FL110 - > FL125.
10-12UTC: Noll grader FL115 - > FL125.
12-16UTC: Noll grader FL110 - > FL125.

Vind vid marken
08-10UTC: Område se32e: SV-V/5-13 knop, byar upp till 20 knop.
Område se32j: SV-V/5-12 knop, byar upp till 20 knop.
Område se32i: SV-V/5-10 knop, byar upp till 19 knop.
Område se32c: SV/2-11 knop, byar upp till 19 knop.
Område se32a: SV/5-15 knop, byar upp till 21 knop.
Område se32g: SV-V/5-9 knop, byar upp till 18 knop.
Område se32h: SV-V/4-11 knop, byar upp till 19 knop.
Område se32f: SV-V/5-9 knop, byar upp till 19 knop.
Område se32b: SV-V/3-11 knop, byar upp till 20 knop.
Område se32d: SV-V/4-11 knop, byar upp till 18 knop.

10-12UTC: Område se32c: S-SV/5-14 knop, byar upp till 21 knop.
Område se32a: SV/3-13 knop, byar upp till 20 knop.
Område se32b: SV/0-13 knop, byar upp till 20 knop.
Område se32g,se32f: V/4-9 knop, byar upp till 19 knop.
Område se32j: SV-V/5-11 knop, byar upp till 24 knop.
Område se32i: V/3-10 knop, byar upp till 20 knop.
Område se32d: SV-V/4-10 knop, byar upp till 21 knop.
Område se32h: SV-V/3-10 knop, byar upp till 19 knop.
Område se32e: SV-V/5-12 knop, byar upp till 21 knop.

12-14UTC: Område se32j: V/4-11 knop, byar upp till 24 knop.
Område se32h: V/3-10 knop, byar upp till 21 knop.
Område se32g: V/4-10 knop, byar upp till 21 knop.
Område se32b: S-SV/1-14 knop, byar upp till 25 knop.
Område se32a: SV/2-15 knop, byar upp till 21 knop.
Område se32d: SV-V/0-13 knop, byar upp till 22 knop.
Område se32f: V/4-8 knop, byar upp till 17 knop.
Område se32i: V/2-11 knop, byar upp till 22 knop.
Område se32e: SV-V/5-13 knop, byar upp till 22 knop.
Område se32c: S-SV/5-17 knop, byar upp till 21 knop.

14-16UTC: Område se32d: SV-V/3-13 knop, byar upp till 19 knop.
Område se32j: V/3-10 knop, byar upp till 22 knop.
Område se32c: SV/2-16 knop, byar upp till 22 knop.
Område se32g: V/3-10 knop, byar upp till 21 knop.
Område se32a: SV/0-13 knop, byar upp till 20 knop.
Område se32b: SV/2-13 knop, byar upp till 24 knop.
Område se32e: SV-V/5-12 knop, byar upp till 22 knop.
Område se32h: V/1-10 knop, byar upp till 20 knop.
Område se32i: V-NV/0-10 knop, byar upp till 21 knop.
Område se32f: V-NV/4-9 knop, byar upp till 18 knop.


Genomsnittlig vind och temperatur för området
2000ft:
08-10UTC: 260/15kt +13.
10-12UTC: 260/13kt +15.
12-14UTC: 260/14kt +17.
14-16UTC: 270/13kt +18.

FL50:
08-10UTC: 270/25kt +10.
10-12UTC: 270/21kt +11.
12-14UTC: 270/18kt +11.
14-16UTC: 270/17kt +11.

FL100:
08-10UTC: 270/26kt +3.
10-12UTC: 260/22kt +3.
12-14UTC: 260/18kt +3.
14-16UTC: 260/15kt +3.

Lägsta QNH
1019 hPa.

OBS! endast utbredd måttlig eller svår isbildning och turbulens prognostiseras i LLF.
Avsaknad av isbildning och turbulens i prognosen utesluter inte förekomst av lätt isbildning och turbulens.
För indikation på lätt isbildning, var vänlig kontrollera om prognosen för molntopp ligger högre än nollgradersisotermen.
Förekomst av TCU eller CB medför alltid en risk för måttlig eller svår isbildning och turbulens även om det inte framgår explicit av prognosen.







Spotting

Hur fungerar spotthjälpen och Vindkartan?

Markvind är ca 2-6 m/s med byar på 10 m/s.
Vind på 600 m ca 8 m/s.
Vind på 1500 m ca 13 m/s.
Vind på 3000 m ca 13 m/s.
YL-KAM flyger ca 28 m/s över marken på finalen.
Du driver ca 602 m bakåt i frifall. (803 m)
Lämplig spot är 11 sekunder eller 306 m efter gropen.
(19 s eller 528 m)
För små grupper eller ensamhoppare bör man vänta 5-8 sekunder mellan grupperna.
För större grupper bör man vänta 11-13 sekunder mellan grupperna.


Vindkartan

Senast uppdaterad 09:42




All data kommer från LFV.se